Terminal Aerodrome Forecast
Issued by NWS

Home | Current Version | Previous Version | Graphics & Text | Print | Product List | Glossary On
Versions: 1 2 3 4 5 6 7 8 9 10 11 12 13
000
FTUS43 KIWX 011722
TAFSBN
TAF
KSBN 011722Z 0118/0218 21011KT P6SM SCT035
     FM020100 22005KT P6SM SCT060
      TEMPO 0209/0213 4SM BR=

USA.gov is the U.S. government's official web portal to all federal, state and local government web resources and services.